sensor_id;sensor_type;location;lat;lon;timestamp;P1;durP1;ratioP1;P2;durP2;ratioP2
16804;SDS011;8520;50.102;20.010;2022-08-19T00:00:28;30.45;;;28.55;;
16804;SDS011;8520;50.102;20.010;2022-08-19T00:03:17;30.73;;;28.92;;
16804;SDS011;8520;50.102;20.010;2022-08-19T00:06:05;31.50;;;29.67;;
16804;SDS011;8520;50.102;20.010;2022-08-19T00:08:56;31.77;;;29.65;;
16804;SDS011;8520;50.102;20.010;2022-08-19T00:11:47;32.22;;;30.13;;
16804;SDS011;8520;50.102;20.010;2022-08-19T00:14:36;31.75;;;29.70;;
16804;SDS011;8520;50.102;20.010;2022-08-19T00:17:25;30.83;;;28.95;;
16804;SDS011;8520;50.102;20.010;2022-08-19T00:20:14;31.60;;;29.70;;
16804;SDS011;8520;50.102;20.010;2022-08-19T00:23:04;32.80;;;30.83;;
16804;SDS011;8520;50.102;20.010;2022-08-19T00:25:54;33.97;;;31.67;;
16804;SDS011;8520;50.102;20.010;2022-08-19T00:28:43;33.95;;;31.75;;
16804;SDS011;8520;50.102;20.010;2022-08-19T00:31:31;34.50;;;32.05;;
16804;SDS011;8520;50.102;20.010;2022-08-19T00:34:20;34.90;;;32.70;;
16804;SDS011;8520;50.102;20.010;2022-08-19T00:37:10;36.25;;;33.63;;
16804;SDS011;8520;50.102;20.010;2022-08-19T00:39:58;36.85;;;34.53;;
16804;SDS011;8520;50.102;20.010;2022-08-19T00:42:48;35.97;;;33.53;;
16804;SDS011;8520;50.102;20.010;2022-08-19T00:45:40;38.35;;;35.60;;
16804;SDS011;8520;50.102;20.010;2022-08-19T00:48:30;38.25;;;35.58;;
16804;SDS011;8520;50.102;20.010;2022-08-19T00:51:20;34.65;;;32.25;;
16804;SDS011;8520;50.102;20.010;2022-08-19T00:54:10;35.83;;;33.30;;
16804;SDS011;8520;50.102;20.010;2022-08-19T00:56:59;36.33;;;33.83;;
16804;SDS011;8520;50.102;20.010;2022-08-19T00:59:54;34.83;;;32.50;;
16804;SDS011;8520;50.102;20.010;2022-08-19T01:02:49;35.67;;;33.40;;
16804;SDS011;8520;50.102;20.010;2022-08-19T01:05:38;35.03;;;32.80;;
16804;SDS011;8520;50.102;20.010;2022-08-19T01:08:29;34.70;;;32.40;;
16804;SDS011;8520;50.102;20.010;2022-08-19T01:11:17;35.38;;;33.15;;
16804;SDS011;8520;50.102;20.010;2022-08-19T01:14:06;34.13;;;32.10;;
16804;SDS011;8520;50.102;20.010;2022-08-19T01:16:57;33.38;;;31.42;;
16804;SDS011;8520;50.102;20.010;2022-08-19T01:19:56;34.30;;;32.03;;
16804;SDS011;8520;50.102;20.010;2022-08-19T01:22:46;34.50;;;32.30;;
16804;SDS011;8520;50.102;20.010;2022-08-19T01:25:39;34.67;;;32.65;;
16804;SDS011;8520;50.102;20.010;2022-08-19T01:28:31;35.80;;;33.78;;
16804;SDS011;8520;50.102;20.010;2022-08-19T01:31:27;36.00;;;33.55;;
16804;SDS011;8520;50.102;20.010;2022-08-19T01:34:18;34.92;;;32.85;;
16804;SDS011;8520;50.102;20.010;2022-08-19T01:37:07;36.70;;;34.53;;
16804;SDS011;8520;50.102;20.010;2022-08-19T01:39:59;34.63;;;32.63;;
16804;SDS011;8520;50.102;20.010;2022-08-19T01:42:53;35.03;;;33.03;;
16804;SDS011;8520;50.102;20.010;2022-08-19T01:45:42;36.95;;;34.85;;
16804;SDS011;8520;50.102;20.010;2022-08-19T01:48:32;36.65;;;34.35;;
16804;SDS011;8520;50.102;20.010;2022-08-19T01:51:22;36.85;;;34.47;;
16804;SDS011;8520;50.102;20.010;2022-08-19T01:54:11;37.80;;;35.60;;
16804;SDS011;8520;50.102;20.010;2022-08-19T01:57:14;36.90;;;34.65;;
16804;SDS011;8520;50.102;20.010;2022-08-19T02:00:10;36.88;;;34.67;;
16804;SDS011;8520;50.102;20.010;2022-08-19T02:03:02;35.65;;;33.45;;
16804;SDS011;8520;50.102;20.010;2022-08-19T02:05:53;36.67;;;34.55;;
16804;SDS011;8520;50.102;20.010;2022-08-19T02:08:43;37.40;;;35.20;;
16804;SDS011;8520;50.102;20.010;2022-08-19T02:11:37;36.67;;;34.67;;
16804;SDS011;8520;50.102;20.010;2022-08-19T02:14:27;37.10;;;34.92;;
16804;SDS011;8520;50.102;20.010;2022-08-19T02:17:15;37.88;;;35.40;;
16804;SDS011;8520;50.102;20.010;2022-08-19T02:20:05;37.55;;;35.45;;
16804;SDS011;8520;50.102;20.010;2022-08-19T02:22:54;39.22;;;36.65;;
16804;SDS011;8520;50.102;20.010;2022-08-19T02:25:43;37.28;;;34.97;;
16804;SDS011;8520;50.102;20.010;2022-08-19T02:28:34;37.55;;;35.45;;
16804;SDS011;8520;50.102;20.010;2022-08-19T02:31:25;39.40;;;36.88;;
16804;SDS011;8520;50.102;20.010;2022-08-19T02:34:14;39.60;;;37.03;;
16804;SDS011;8520;50.102;20.010;2022-08-19T02:37:03;39.78;;;37.42;;
16804;SDS011;8520;50.102;20.010;2022-08-19T02:39:52;41.17;;;38.58;;
16804;SDS011;8520;50.102;20.010;2022-08-19T02:42:39;41.10;;;38.38;;
16804;SDS011;8520;50.102;20.010;2022-08-19T02:45:31;41.08;;;38.58;;
16804;SDS011;8520;50.102;20.010;2022-08-19T02:48:22;40.40;;;37.88;;
16804;SDS011;8520;50.102;20.010;2022-08-19T02:51:15;40.20;;;37.70;;
16804;SDS011;8520;50.102;20.010;2022-08-19T02:54:04;39.70;;;37.40;;
16804;SDS011;8520;50.102;20.010;2022-08-19T02:56:54;40.45;;;37.80;;
16804;SDS011;8520;50.102;20.010;2022-08-19T02:59:43;40.45;;;37.95;;
16804;SDS011;8520;50.102;20.010;2022-08-19T03:02:31;41.47;;;38.88;;
16804;SDS011;8520;50.102;20.010;2022-08-19T03:05:21;40.63;;;38.13;;
16804;SDS011;8520;50.102;20.010;2022-08-19T03:08:30;41.67;;;39.13;;
16804;SDS011;8520;50.102;20.010;2022-08-19T03:11:19;41.72;;;39.17;;
16804;SDS011;8520;50.102;20.010;2022-08-19T03:14:10;42.17;;;39.58;;
16804;SDS011;8520;50.102;20.010;2022-08-19T03:16:59;41.75;;;38.85;;
16804;SDS011;8520;50.102;20.010;2022-08-19T03:19:48;41.85;;;39.38;;
16804;SDS011;8520;50.102;20.010;2022-08-19T03:22:38;43.63;;;40.78;;
16804;SDS011;8520;50.102;20.010;2022-08-19T03:25:26;44.45;;;41.70;;
16804;SDS011;8520;50.102;20.010;2022-08-19T03:28:14;41.75;;;39.35;;
16804;SDS011;8520;50.102;20.010;2022-08-19T03:31:05;43.95;;;41.22;;
16804;SDS011;8520;50.102;20.010;2022-08-19T03:34:16;43.63;;;41.10;;
16804;SDS011;8520;50.102;20.010;2022-08-19T03:37:07;43.40;;;40.88;;
16804;SDS011;8520;50.102;20.010;2022-08-19T03:40:00;43.58;;;40.65;;
16804;SDS011;8520;50.102;20.010;2022-08-19T03:42:50;43.83;;;40.97;;
16804;SDS011;8520;50.102;20.010;2022-08-19T03:45:42;42.13;;;39.67;;
16804;SDS011;8520;50.102;20.010;2022-08-19T03:48:30;43.05;;;40.45;;
16804;SDS011;8520;50.102;20.010;2022-08-19T03:51:21;44.97;;;41.97;;
16804;SDS011;8520;50.102;20.010;2022-08-19T03:54:17;44.47;;;41.95;;
16804;SDS011;8520;50.102;20.010;2022-08-19T03:57:11;43.10;;;40.38;;
16804;SDS011;8520;50.102;20.010;2022-08-19T03:59:59;43.75;;;41.05;;
16804;SDS011;8520;50.102;20.010;2022-08-19T04:02:59;44.28;;;41.47;;
16804;SDS011;8520;50.102;20.010;2022-08-19T04:05:49;44.80;;;41.92;;
16804;SDS011;8520;50.102;20.010;2022-08-19T04:08:37;45.60;;;42.70;;
16804;SDS011;8520;50.102;20.010;2022-08-19T04:11:27;43.22;;;40.72;;
16804;SDS011;8520;50.102;20.010;2022-08-19T04:14:31;43.75;;;41.25;;
16804;SDS011;8520;50.102;20.010;2022-08-19T04:17:20;43.05;;;40.53;;
16804;SDS011;8520;50.102;20.010;2022-08-19T04:20:09;43.28;;;40.38;;
16804;SDS011;8520;50.102;20.010;2022-08-19T04:22:58;43.20;;;40.50;;
16804;SDS011;8520;50.102;20.010;2022-08-19T04:25:47;42.58;;;40.03;;
16804;SDS011;8520;50.102;20.010;2022-08-19T04:28:35;44.10;;;41.38;;
16804;SDS011;8520;50.102;20.010;2022-08-19T04:31:26;45.10;;;42.38;;
16804;SDS011;8520;50.102;20.010;2022-08-19T04:34:16;45.10;;;42.38;;
16804;SDS011;8520;50.102;20.010;2022-08-19T04:37:09;44.85;;;41.90;;
16804;SDS011;8520;50.102;20.010;2022-08-19T04:39:58;42.78;;;40.15;;
16804;SDS011;8520;50.102;20.010;2022-08-19T04:43:05;43.25;;;40.55;;
16804;SDS011;8520;50.102;20.010;2022-08-19T04:45:53;43.30;;;40.55;;
16804;SDS011;8520;50.102;20.010;2022-08-19T04:48:48;42.47;;;39.67;;
16804;SDS011;8520;50.102;20.010;2022-08-19T04:51:39;43.20;;;40.50;;
16804;SDS011;8520;50.102;20.010;2022-08-19T04:54:29;43.40;;;40.75;;
16804;SDS011;8520;50.102;20.010;2022-08-19T04:57:24;41.15;;;38.65;;
16804;SDS011;8520;50.102;20.010;2022-08-19T05:00:13;42.38;;;39.70;;
16804;SDS011;8520;50.102;20.010;2022-08-19T05:03:02;41.17;;;38.45;;
16804;SDS011;8520;50.102;20.010;2022-08-19T05:05:54;41.13;;;38.47;;
16804;SDS011;8520;50.102;20.010;2022-08-19T05:08:43;42.78;;;39.30;;
16804;SDS011;8520;50.102;20.010;2022-08-19T05:11:33;42.90;;;39.92;;
16804;SDS011;8520;50.102;20.010;2022-08-19T05:14:23;41.28;;;37.60;;
16804;SDS011;8520;50.102;20.010;2022-08-19T05:17:11;40.70;;;36.88;;
16804;SDS011;8520;50.102;20.010;2022-08-19T05:20:20;39.38;;;36.25;;
16804;SDS011;8520;50.102;20.010;2022-08-19T05:23:27;37.17;;;34.53;;
16804;SDS011;8520;50.102;20.010;2022-08-19T05:26:16;36.00;;;33.40;;
16804;SDS011;8520;50.102;20.010;2022-08-19T05:29:04;35.55;;;32.97;;
16804;SDS011;8520;50.102;20.010;2022-08-19T05:31:56;34.78;;;32.10;;
16804;SDS011;8520;50.102;20.010;2022-08-19T05:34:44;33.25;;;30.73;;
16804;SDS011;8520;50.102;20.010;2022-08-19T05:37:33;32.03;;;29.90;;
16804;SDS011;8520;50.102;20.010;2022-08-19T05:40:23;32.53;;;30.30;;
16804;SDS011;8520;50.102;20.010;2022-08-19T05:43:12;31.55;;;29.65;;
16804;SDS011;8520;50.102;20.010;2022-08-19T05:46:02;30.65;;;28.52;;
16804;SDS011;8520;50.102;20.010;2022-08-19T05:48:52;31.42;;;29.42;;
16804;SDS011;8520;50.102;20.010;2022-08-19T05:51:42;30.13;;;28.00;;
16804;SDS011;8520;50.102;20.010;2022-08-19T05:54:31;29.58;;;27.35;;
16804;SDS011;8520;50.102;20.010;2022-08-19T05:57:22;28.38;;;26.63;;
16804;SDS011;8520;50.102;20.010;2022-08-19T06:00:12;28.55;;;26.48;;
16804;SDS011;8520;50.102;20.010;2022-08-19T06:03:01;29.10;;;26.85;;
16804;SDS011;8520;50.102;20.010;2022-08-19T06:05:58;29.30;;;26.95;;
16804;SDS011;8520;50.102;20.010;2022-08-19T06:08:47;27.85;;;26.15;;
16804;SDS011;8520;50.102;20.010;2022-08-19T06:11:39;27.83;;;25.77;;
16804;SDS011;8520;50.102;20.010;2022-08-19T06:14:32;27.08;;;25.33;;
16804;SDS011;8520;50.102;20.010;2022-08-19T06:17:27;27.00;;;25.25;;
16804;SDS011;8520;50.102;20.010;2022-08-19T06:20:17;27.92;;;25.83;;
16804;SDS011;8520;50.102;20.010;2022-08-19T06:23:27;28.90;;;25.95;;
16804;SDS011;8520;50.102;20.010;2022-08-19T06:26:16;32.17;;;26.63;;
16804;SDS011;8520;50.102;20.010;2022-08-19T06:29:06;26.20;;;24.00;;
16804;SDS011;8520;50.102;20.010;2022-08-19T06:32:11;23.95;;;22.42;;
16804;SDS011;8520;50.102;20.010;2022-08-19T06:34:59;24.33;;;22.60;;
16804;SDS011;8520;50.102;20.010;2022-08-19T06:37:47;25.08;;;23.33;;
16804;SDS011;8520;50.102;20.010;2022-08-19T06:40:36;22.98;;;21.27;;
16804;SDS011;8520;50.102;20.010;2022-08-19T06:43:25;23.58;;;21.88;;
16804;SDS011;8520;50.102;20.010;2022-08-19T06:46:16;22.55;;;20.88;;
16804;SDS011;8520;50.102;20.010;2022-08-19T06:49:06;21.63;;;20.02;;
16804;SDS011;8520;50.102;20.010;2022-08-19T06:51:58;20.85;;;19.40;;
16804;SDS011;8520;50.102;20.010;2022-08-19T06:54:47;21.55;;;20.02;;
16804;SDS011;8520;50.102;20.010;2022-08-19T06:57:42;21.60;;;19.88;;
16804;SDS011;8520;50.102;20.010;2022-08-19T07:00:33;19.67;;;18.23;;
16804;SDS011;8520;50.102;20.010;2022-08-19T07:03:21;20.50;;;18.45;;
16804;SDS011;8520;50.102;20.010;2022-08-19T07:06:12;19.85;;;18.45;;
16804;SDS011;8520;50.102;20.010;2022-08-19T07:09:24;21.20;;;19.33;;
16804;SDS011;8520;50.102;20.010;2022-08-19T07:12:13;20.60;;;18.73;;
16804;SDS011;8520;50.102;20.010;2022-08-19T07:15:03;18.67;;;17.25;;
16804;SDS011;8520;50.102;20.010;2022-08-19T07:17:51;18.30;;;16.90;;
16804;SDS011;8520;50.102;20.010;2022-08-19T07:20:41;18.45;;;17.25;;
16804;SDS011;8520;50.102;20.010;2022-08-19T07:23:31;18.73;;;16.90;;
16804;SDS011;8520;50.102;20.010;2022-08-19T07:26:21;18.10;;;16.63;;
16804;SDS011;8520;50.102;20.010;2022-08-19T07:29:13;18.00;;;16.45;;
16804;SDS011;8520;50.102;20.010;2022-08-19T07:32:04;18.30;;;16.65;;
16804;SDS011;8520;50.102;20.010;2022-08-19T07:34:59;18.77;;;17.10;;
16804;SDS011;8520;50.102;20.010;2022-08-19T07:37:50;19.10;;;17.17;;
16804;SDS011;8520;50.102;20.010;2022-08-19T07:40:41;18.42;;;16.55;;
16804;SDS011;8520;50.102;20.010;2022-08-19T07:43:32;18.90;;;16.05;;
16804;SDS011;8520;50.102;20.010;2022-08-19T07:46:21;17.02;;;15.63;;
16804;SDS011;8520;50.102;20.010;2022-08-19T07:49:10;17.48;;;15.68;;
16804;SDS011;8520;50.102;20.010;2022-08-19T07:52:05;16.52;;;15.35;;
16804;SDS011;8520;50.102;20.010;2022-08-19T07:54:55;18.42;;;15.00;;
16804;SDS011;8520;50.102;20.010;2022-08-19T07:57:45;15.93;;;14.48;;
16804;SDS011;8520;50.102;20.010;2022-08-19T08:00:34;17.08;;;15.50;;
16804;SDS011;8520;50.102;20.010;2022-08-19T08:03:23;16.77;;;15.15;;
16804;SDS011;8520;50.102;20.010;2022-08-19T08:06:32;16.42;;;14.32;;
16804;SDS011;8520;50.102;20.010;2022-08-19T08:09:39;15.93;;;14.52;;
16804;SDS011;8520;50.102;20.010;2022-08-19T08:12:36;15.32;;;14.00;;
16804;SDS011;8520;50.102;20.010;2022-08-19T08:15:30;16.48;;;14.90;;
16804;SDS011;8520;50.102;20.010;2022-08-19T08:18:19;15.60;;;14.18;;
16804;SDS011;8520;50.102;20.010;2022-08-19T08:21:07;19.15;;;14.05;;
16804;SDS011;8520;50.102;20.010;2022-08-19T08:23:56;18.08;;;16.08;;
16804;SDS011;8520;50.102;20.010;2022-08-19T08:26:49;16.52;;;13.65;;
16804;SDS011;8520;50.102;20.010;2022-08-19T08:29:43;16.80;;;14.57;;
16804;SDS011;8520;50.102;20.010;2022-08-19T08:32:33;14.70;;;13.23;;
16804;SDS011;8520;50.102;20.010;2022-08-19T08:35:23;16.63;;;14.25;;
16804;SDS011;8520;50.102;20.010;2022-08-19T08:38:13;16.35;;;14.65;;
16804;SDS011;8520;50.102;20.010;2022-08-19T08:41:04;18.30;;;15.75;;
16804;SDS011;8520;50.102;20.010;2022-08-19T08:43:57;19.75;;;14.65;;
16804;SDS011;8520;50.102;20.010;2022-08-19T08:46:47;21.45;;;14.82;;
16804;SDS011;8520;50.102;20.010;2022-08-19T08:49:41;19.80;;;14.15;;
16804;SDS011;8520;50.102;20.010;2022-08-19T08:52:39;18.13;;;16.23;;
16804;SDS011;8520;50.102;20.010;2022-08-19T08:55:31;22.63;;;14.35;;
16804;SDS011;8520;50.102;20.010;2022-08-19T08:58:25;19.05;;;15.93;;
16804;SDS011;8520;50.102;20.010;2022-08-19T09:01:17;20.52;;;15.68;;
16804;SDS011;8520;50.102;20.010;2022-08-19T09:04:06;19.00;;;14.82;;
16804;SDS011;8520;50.102;20.010;2022-08-19T09:06:58;17.00;;;14.77;;
16804;SDS011;8520;50.102;20.010;2022-08-19T09:10:19;16.13;;;14.40;;
16804;SDS011;8520;50.102;20.010;2022-08-19T09:13:17;18.23;;;14.63;;
16804;SDS011;8520;50.102;20.010;2022-08-19T09:16:14;16.90;;;15.23;;
16804;SDS011;8520;50.102;20.010;2022-08-19T09:19:13;16.85;;;14.15;;
16804;SDS011;8520;50.102;20.010;2022-08-19T09:22:09;15.05;;;13.68;;
16804;SDS011;8520;50.102;20.010;2022-08-19T09:24:58;20.52;;;14.85;;
16804;SDS011;8520;50.102;20.010;2022-08-19T09:27:46;21.27;;;13.73;;
16804;SDS011;8520;50.102;20.010;2022-08-19T09:30:38;16.45;;;14.57;;
16804;SDS011;8520;50.102;20.010;2022-08-19T09:33:28;20.20;;;14.50;;
16804;SDS011;8520;50.102;20.010;2022-08-19T09:36:19;17.98;;;13.68;;
16804;SDS011;8520;50.102;20.010;2022-08-19T09:39:22;18.77;;;13.02;;
16804;SDS011;8520;50.102;20.010;2022-08-19T09:42:21;15.77;;;13.32;;
16804;SDS011;8520;50.102;20.010;2022-08-19T09:45:21;16.35;;;13.23;;
16804;SDS011;8520;50.102;20.010;2022-08-19T09:48:10;18.00;;;13.77;;
16804;SDS011;8520;50.102;20.010;2022-08-19T09:51:10;21.38;;;14.40;;
16804;SDS011;8520;50.102;20.010;2022-08-19T09:54:00;17.25;;;14.38;;
16804;SDS011;8520;50.102;20.010;2022-08-19T09:56:52;17.60;;;14.75;;
16804;SDS011;8520;50.102;20.010;2022-08-19T09:59:41;17.13;;;14.30;;
16804;SDS011;8520;50.102;20.010;2022-08-19T10:02:31;19.75;;;14.93;;
16804;SDS011;8520;50.102;20.010;2022-08-19T10:05:20;15.05;;;13.65;;
16804;SDS011;8520;50.102;20.010;2022-08-19T10:08:30;19.35;;;13.52;;
16804;SDS011;8520;50.102;20.010;2022-08-19T10:11:21;17.40;;;13.57;;
16804;SDS011;8520;50.102;20.010;2022-08-19T10:14:23;13.48;;;12.18;;
16804;SDS011;8520;50.102;20.010;2022-08-19T10:17:11;14.70;;;13.40;;
16804;SDS011;8520;50.102;20.010;2022-08-19T10:20:07;13.73;;;12.32;;
16804;SDS011;8520;50.102;20.010;2022-08-19T10:22:56;12.38;;;11.30;;
16804;SDS011;8520;50.102;20.010;2022-08-19T10:25:47;13.65;;;12.55;;
16804;SDS011;8520;50.102;20.010;2022-08-19T10:28:36;12.13;;;11.23;;
16804;SDS011;8520;50.102;20.010;2022-08-19T10:31:30;11.93;;;11.00;;
16804;SDS011;8520;50.102;20.010;2022-08-19T10:34:40;11.80;;;10.80;;
16804;SDS011;8520;50.102;20.010;2022-08-19T10:37:36;12.10;;;11.20;;
16804;SDS011;8520;50.102;20.010;2022-08-19T10:40:43;11.13;;;10.20;;
16804;SDS011;8520;50.102;20.010;2022-08-19T10:43:32;11.65;;;10.77;;
16804;SDS011;8520;50.102;20.010;2022-08-19T10:46:21;11.70;;;10.40;;
16804;SDS011;8520;50.102;20.010;2022-08-19T10:49:13;12.38;;;10.07;;
16804;SDS011;8520;50.102;20.010;2022-08-19T10:52:03;11.93;;;10.80;;
16804;SDS011;8520;50.102;20.010;2022-08-19T10:55:19;11.43;;;10.38;;
16804;SDS011;8520;50.102;20.010;2022-08-19T10:58:27;10.15;;;9.40;;
16804;SDS011;8520;50.102;20.010;2022-08-19T11:01:15;10.73;;;9.82;;
16804;SDS011;8520;50.102;20.010;2022-08-19T11:04:04;11.98;;;10.88;;
16804;SDS011;8520;50.102;20.010;2022-08-19T11:06:57;11.75;;;10.82;;
16804;SDS011;8520;50.102;20.010;2022-08-19T11:09:45;11.00;;;10.10;;
16804;SDS011;8520;50.102;20.010;2022-08-19T11:12:35;11.75;;;10.75;;
16804;SDS011;8520;50.102;20.010;2022-08-19T11:15:26;12.25;;;11.27;;
16804;SDS011;8520;50.102;20.010;2022-08-19T11:18:18;11.45;;;10.55;;
16804;SDS011;8520;50.102;20.010;2022-08-19T11:21:07;11.05;;;10.18;;
16804;SDS011;8520;50.102;20.010;2022-08-19T11:24:00;10.98;;;10.27;;
16804;SDS011;8520;50.102;20.010;2022-08-19T11:26:51;10.55;;;9.63;;
16804;SDS011;8520;50.102;20.010;2022-08-19T11:29:43;12.65;;;10.38;;
16804;SDS011;8520;50.102;20.010;2022-08-19T11:32:32;11.77;;;10.88;;
16804;SDS011;8520;50.102;20.010;2022-08-19T11:35:20;12.35;;;11.20;;
16804;SDS011;8520;50.102;20.010;2022-08-19T11:38:10;10.85;;;10.10;;
16804;SDS011;8520;50.102;20.010;2022-08-19T11:41:02;11.20;;;10.15;;
16804;SDS011;8520;50.102;20.010;2022-08-19T11:43:54;11.05;;;10.25;;
16804;SDS011;8520;50.102;20.010;2022-08-19T11:46:43;10.48;;;9.52;;
16804;SDS011;8520;50.102;20.010;2022-08-19T11:49:33;10.95;;;10.05;;
16804;SDS011;8520;50.102;20.010;2022-08-19T11:52:23;11.32;;;10.27;;
16804;SDS011;8520;50.102;20.010;2022-08-19T11:55:12;11.43;;;10.48;;
16804;SDS011;8520;50.102;20.010;2022-08-19T11:58:02;10.95;;;10.05;;
16804;SDS011;8520;50.102;20.010;2022-08-19T12:01:05;10.68;;;9.77;;
16804;SDS011;8520;50.102;20.010;2022-08-19T12:03:55;10.68;;;9.65;;
16804;SDS011;8520;50.102;20.010;2022-08-19T12:06:44;11.07;;;9.55;;
16804;SDS011;8520;50.102;20.010;2022-08-19T12:09:33;10.90;;;9.80;;
16804;SDS011;8520;50.102;20.010;2022-08-19T12:12:29;9.60;;;8.70;;
16804;SDS011;8520;50.102;20.010;2022-08-19T12:15:18;10.60;;;9.57;;
16804;SDS011;8520;50.102;20.010;2022-08-19T12:18:08;9.63;;;8.90;;
16804;SDS011;8520;50.102;20.010;2022-08-19T12:20:57;11.30;;;10.13;;
16804;SDS011;8520;50.102;20.010;2022-08-19T12:23:47;11.20;;;10.13;;
16804;SDS011;8520;50.102;20.010;2022-08-19T12:26:41;8.85;;;8.23;;
16804;SDS011;8520;50.102;20.010;2022-08-19T12:29:39;10.25;;;9.38;;
16804;SDS011;8520;50.102;20.010;2022-08-19T12:32:29;10.57;;;9.80;;
16804;SDS011;8520;50.102;20.010;2022-08-19T12:35:18;9.40;;;8.70;;
16804;SDS011;8520;50.102;20.010;2022-08-19T12:38:08;9.90;;;9.13;;
16804;SDS011;8520;50.102;20.010;2022-08-19T12:40:56;10.60;;;9.70;;
16804;SDS011;8520;50.102;20.010;2022-08-19T12:43:46;10.32;;;9.50;;
16804;SDS011;8520;50.102;20.010;2022-08-19T12:46:36;9.02;;;8.50;;
16804;SDS011;8520;50.102;20.010;2022-08-19T12:49:28;10.55;;;9.75;;
16804;SDS011;8520;50.102;20.010;2022-08-19T12:52:37;9.60;;;8.90;;
16804;SDS011;8520;50.102;20.010;2022-08-19T12:55:29;10.52;;;9.77;;
16804;SDS011;8520;50.102;20.010;2022-08-19T12:58:18;10.73;;;9.65;;
16804;SDS011;8520;50.102;20.010;2022-08-19T13:01:14;13.25;;;9.93;;
16804;SDS011;8520;50.102;20.010;2022-08-19T13:04:08;10.27;;;9.45;;
16804;SDS011;8520;50.102;20.010;2022-08-19T13:06:58;10.90;;;9.90;;
16804;SDS011;8520;50.102;20.010;2022-08-19T13:09:46;11.50;;;10.45;;
16804;SDS011;8520;50.102;20.010;2022-08-19T13:12:35;11.20;;;10.40;;
16804;SDS011;8520;50.102;20.010;2022-08-19T13:15:24;11.18;;;9.98;;
16804;SDS011;8520;50.102;20.010;2022-08-19T13:18:12;9.98;;;9.25;;
16804;SDS011;8520;50.102;20.010;2022-08-19T13:21:02;10.45;;;9.63;;
16804;SDS011;8520;50.102;20.010;2022-08-19T13:23:53;10.88;;;9.95;;
16804;SDS011;8520;50.102;20.010;2022-08-19T13:26:42;11.57;;;9.90;;
16804;SDS011;8520;50.102;20.010;2022-08-19T13:29:30;12.32;;;8.30;;
16804;SDS011;8520;50.102;20.010;2022-08-19T13:32:36;11.23;;;9.30;;
16804;SDS011;8520;50.102;20.010;2022-08-19T13:35:43;10.10;;;8.88;;
16804;SDS011;8520;50.102;20.010;2022-08-19T13:38:34;10.75;;;10.13;;
16804;SDS011;8520;50.102;20.010;2022-08-19T13:41:25;10.05;;;9.05;;
16804;SDS011;8520;50.102;20.010;2022-08-19T13:44:14;10.15;;;9.20;;
16804;SDS011;8520;50.102;20.010;2022-08-19T13:47:05;9.00;;;8.30;;
16804;SDS011;8520;50.102;20.010;2022-08-19T13:49:55;10.55;;;9.70;;
16804;SDS011;8520;50.102;20.010;2022-08-19T13:52:43;9.52;;;8.63;;
16804;SDS011;8520;50.102;20.010;2022-08-19T13:55:32;9.93;;;9.13;;
16804;SDS011;8520;50.102;20.010;2022-08-19T13:58:22;9.73;;;9.02;;
16804;SDS011;8520;50.102;20.010;2022-08-19T14:01:11;9.02;;;8.40;;
16804;SDS011;8520;50.102;20.010;2022-08-19T14:03:59;14.50;;;10.15;;
16804;SDS011;8520;50.102;20.010;2022-08-19T14:06:48;15.45;;;9.75;;
16804;SDS011;8520;50.102;20.010;2022-08-19T14:09:37;11.65;;;10.48;;
16804;SDS011;8520;50.102;20.010;2022-08-19T14:12:25;10.23;;;9.50;;
16804;SDS011;8520;50.102;20.010;2022-08-19T14:15:16;11.93;;;9.98;;
16804;SDS011;8520;50.102;20.010;2022-08-19T14:18:04;10.02;;;9.25;;
16804;SDS011;8520;50.102;20.010;2022-08-19T14:20:53;9.27;;;8.55;;
16804;SDS011;8520;50.102;20.010;2022-08-19T14:23:44;9.63;;;9.02;;
16804;SDS011;8520;50.102;20.010;2022-08-19T14:26:33;11.45;;;10.55;;
16804;SDS011;8520;50.102;20.010;2022-08-19T14:29:21;10.10;;;9.30;;
16804;SDS011;8520;50.102;20.010;2022-08-19T14:32:11;9.52;;;8.93;;
16804;SDS011;8520;50.102;20.010;2022-08-19T14:35:02;9.73;;;9.02;;
16804;SDS011;8520;50.102;20.010;2022-08-19T14:37:52;10.10;;;8.98;;
16804;SDS011;8520;50.102;20.010;2022-08-19T14:40:43;12.75;;;9.77;;
16804;SDS011;8520;50.102;20.010;2022-08-19T14:43:32;10.50;;;9.60;;
16804;SDS011;8520;50.102;20.010;2022-08-19T14:46:22;9.20;;;8.60;;
16804;SDS011;8520;50.102;20.010;2022-08-19T14:49:16;9.20;;;8.45;;
16804;SDS011;8520;50.102;20.010;2022-08-19T14:52:05;11.23;;;8.82;;
16804;SDS011;8520;50.102;20.010;2022-08-19T14:54:53;8.55;;;7.85;;
16804;SDS011;8520;50.102;20.010;2022-08-19T14:57:43;9.13;;;8.38;;
16804;SDS011;8520;50.102;20.010;2022-08-19T15:00:33;10.20;;;9.27;;
16804;SDS011;8520;50.102;20.010;2022-08-19T15:03:22;10.15;;;9.48;;
16804;SDS011;8520;50.102;20.010;2022-08-19T15:06:12;9.77;;;9.07;;
16804;SDS011;8520;50.102;20.010;2022-08-19T15:09:01;10.70;;;9.50;;
16804;SDS011;8520;50.102;20.010;2022-08-19T15:11:50;9.57;;;8.98;;
16804;SDS011;8520;50.102;20.010;2022-08-19T15:14:38;9.20;;;8.60;;
16804;SDS011;8520;50.102;20.010;2022-08-19T15:17:29;8.98;;;8.38;;
16804;SDS011;8520;50.102;20.010;2022-08-19T15:20:31;11.13;;;10.32;;
16804;SDS011;8520;50.102;20.010;2022-08-19T15:23:21;10.20;;;9.50;;
16804;SDS011;8520;50.102;20.010;2022-08-19T15:26:10;11.10;;;9.95;;
16804;SDS011;8520;50.102;20.010;2022-08-19T15:29:03;11.45;;;10.32;;
16804;SDS011;8520;50.102;20.010;2022-08-19T15:31:52;10.23;;;9.52;;
16804;SDS011;8520;50.102;20.010;2022-08-19T15:34:43;11.13;;;10.30;;
16804;SDS011;8520;50.102;20.010;2022-08-19T15:37:32;11.82;;;11.05;;
16804;SDS011;8520;50.102;20.010;2022-08-19T15:40:25;12.25;;;11.50;;
16804;SDS011;8520;50.102;20.010;2022-08-19T15:43:14;11.07;;;10.27;;
16804;SDS011;8520;50.102;20.010;2022-08-19T15:46:03;11.00;;;10.35;;
16804;SDS011;8520;50.102;20.010;2022-08-19T15:48:52;10.93;;;9.93;;
16804;SDS011;8520;50.102;20.010;2022-08-19T15:51:46;12.00;;;10.88;;
16804;SDS011;8520;50.102;20.010;2022-08-19T15:54:35;10.98;;;10.18;;
16804;SDS011;8520;50.102;20.010;2022-08-19T15:57:25;11.20;;;10.50;;
16804;SDS011;8520;50.102;20.010;2022-08-19T16:00:31;10.93;;;10.13;;
16804;SDS011;8520;50.102;20.010;2022-08-19T16:03:38;12.02;;;11.13;;
16804;SDS011;8520;50.102;20.010;2022-08-19T16:06:45;11.88;;;10.77;;
16804;SDS011;8520;50.102;20.010;2022-08-19T16:09:35;11.00;;;10.13;;
16804;SDS011;8520;50.102;20.010;2022-08-19T16:12:24;11.23;;;10.10;;
16804;SDS011;8520;50.102;20.010;2022-08-19T16:15:16;11.88;;;10.77;;
16804;SDS011;8520;50.102;20.010;2022-08-19T16:18:06;11.20;;;10.20;;
16804;SDS011;8520;50.102;20.010;2022-08-19T16:20:55;12.20;;;11.02;;
16804;SDS011;8520;50.102;20.010;2022-08-19T16:23:43;12.43;;;11.52;;
16804;SDS011;8520;50.102;20.010;2022-08-19T16:26:32;12.52;;;11.52;;
16804;SDS011;8520;50.102;20.010;2022-08-19T16:29:22;12.82;;;11.73;;
16804;SDS011;8520;50.102;20.010;2022-08-19T16:32:20;11.77;;;10.85;;
16804;SDS011;8520;50.102;20.010;2022-08-19T16:35:09;11.77;;;10.57;;
16804;SDS011;8520;50.102;20.010;2022-08-19T16:37:58;11.93;;;11.02;;
16804;SDS011;8520;50.102;20.010;2022-08-19T16:40:47;11.43;;;10.50;;
16804;SDS011;8520;50.102;20.010;2022-08-19T16:43:40;12.25;;;11.25;;
16804;SDS011;8520;50.102;20.010;2022-08-19T16:46:30;11.23;;;9.98;;
16804;SDS011;8520;50.102;20.010;2022-08-19T16:49:19;13.70;;;10.45;;